createdAt,value
2022-09-12T00:01:21.976Z,101117.16
2022-09-12T00:03:54.662Z,101110.78
2022-09-12T00:06:30.029Z,101101.97
2022-09-12T00:09:02.043Z,101106.94
2022-09-12T00:11:31.745Z,101100.28
2022-09-12T00:14:02.533Z,101107.97
2022-09-12T00:16:34.182Z,101103.72
2022-09-12T00:19:03.469Z,101104.97
2022-09-12T00:21:34.734Z,101112.66
2022-09-12T00:24:02.231Z,101104.94
2022-09-12T00:26:29.818Z,101098.56
2022-09-12T00:28:56.486Z,101098.00
2022-09-12T00:31:29.405Z,101101.97
2022-09-12T00:34:00.815Z,101096.19
2022-09-12T00:36:30.486Z,101097.91
2022-09-12T00:38:58.624Z,101089.69
2022-09-12T00:41:37.812Z,101091.38
2022-09-12T00:44:24.325Z,101088.53
2022-09-12T00:47:10.441Z,101095.22
2022-09-12T00:50:09.589Z,101089.41
2022-09-12T00:52:51.543Z,101095.50
2022-09-12T00:55:46.662Z,101094.66
2022-09-12T00:59:00.982Z,101090.53
2022-09-12T01:01:32.231Z,101080.00
2022-09-12T01:04:00.776Z,101091.97
2022-09-12T01:06:39.833Z,101089.38
2022-09-12T01:09:08.520Z,101090.50
2022-09-12T01:11:40.165Z,101083.41
2022-09-12T01:14:09.084Z,101089.09
2022-09-12T01:16:38.032Z,101078.75
2022-09-12T01:19:28.842Z,101084.56
2022-09-12T01:22:52.475Z,101082.31
2022-09-12T01:26:04.143Z,101080.00
2022-09-12T01:29:11.799Z,101086.56
2022-09-12T01:32:02.882Z,101076.34
2022-09-12T01:35:16.682Z,101073.78
2022-09-12T01:38:19.705Z,101073.66
2022-09-12T01:41:20.169Z,101080.88
2022-09-12T01:44:13.010Z,101073.09
2022-09-12T01:46:57.921Z,101078.06
2022-09-12T01:49:46.372Z,101069.81
2022-09-12T01:52:47.007Z,101066.56
2022-09-12T01:55:25.884Z,101066.13
2022-09-12T01:58:12.166Z,101070.97
2022-09-12T02:01:09.178Z,101065.09
2022-09-12T02:04:11.282Z,101060.84
2022-09-12T02:06:57.924Z,101059.44
2022-09-12T02:09:39.109Z,101053.31
2022-09-12T02:12:11.420Z,101043.56
2022-09-12T02:14:49.359Z,101046.38
2022-09-12T02:17:24.727Z,101041.88
2022-09-12T02:20:47.008Z,101053.50
2022-09-12T02:23:31.397Z,101040.16
2022-09-12T02:26:10.811Z,101036.03
2022-09-12T02:28:43.120Z,101039.59
2022-09-12T02:31:23.238Z,101037.88
2022-09-12T02:34:49.692Z,101042.00
2022-09-12T02:38:02.305Z,101046.06
2022-09-12T02:40:32.342Z,101039.56
2022-09-12T02:43:06.005Z,101038.41
2022-09-12T02:45:36.573Z,101038.41
2022-09-12T02:48:31.560Z,101043.56
2022-09-12T02:50:58.761Z,101039.84
2022-09-12T02:53:27.325Z,101040.44
2022-09-12T02:55:54.662Z,101032.34
2022-09-12T02:58:30.868Z,101034.19
2022-09-12T03:01:28.901Z,101035.31
2022-09-12T03:04:41.829Z,101035.47
2022-09-12T03:07:53.001Z,101026.81
2022-09-12T03:10:58.916Z,101032.19
2022-09-12T03:13:53.156Z,101036.16
2022-09-12T03:16:46.969Z,101033.63
2022-09-12T03:19:22.438Z,101035.84
2022-09-12T03:22:22.215Z,101038.97
2022-09-12T03:25:22.101Z,101032.84
2022-09-12T03:28:15.518Z,101033.88
2022-09-12T03:30:48.463Z,101032.56
2022-09-12T03:33:23.362Z,101029.56
2022-09-12T03:35:52.774Z,101031.28
2022-09-12T03:38:20.039Z,101022.19
2022-09-12T03:40:49.309Z,101022.38
2022-09-12T03:43:18.250Z,101028.00
2022-09-12T03:45:45.058Z,101025.59
2022-09-12T03:48:14.485Z,101024.03
2022-09-12T03:50:41.118Z,101030.56
2022-09-12T03:53:07.731Z,101024.72
2022-09-12T03:55:34.521Z,101015.94
2022-09-12T03:58:01.205Z,101025.00
2022-09-12T04:00:27.813Z,101024.28
2022-09-12T04:02:57.283Z,101033.06
2022-09-12T04:05:26.243Z,101031.09
2022-09-12T04:07:53.420Z,101028.84
2022-09-12T04:10:20.427Z,101032.13
2022-09-12T04:12:47.317Z,101026.97
2022-09-12T04:15:14.384Z,101032.13
2022-09-12T04:17:41.001Z,101028.41
2022-09-12T04:20:08.520Z,101025.72
2022-09-12T04:22:35.264Z,101032.97
2022-09-12T04:25:03.371Z,101020.50
2022-09-12T04:27:30.237Z,101029.13
2022-09-12T04:29:58.150Z,101031.16
2022-09-12T04:32:25.056Z,101021.78
2022-09-12T04:34:52.528Z,101028.75
2022-09-12T04:37:19.416Z,101038.13
2022-09-12T04:39:49.705Z,101026.78
2022-09-12T04:42:17.480Z,101029.19
2022-09-12T04:44:44.598Z,101026.50
2022-09-12T04:47:11.302Z,101027.63
2022-09-12T04:49:37.966Z,101020.41
2022-09-12T04:52:05.089Z,101025.06
2022-09-12T04:54:31.828Z,101023.38
2022-09-12T04:56:59.044Z,101029.31
2022-09-12T04:59:26.836Z,101038.84
2022-09-12T05:01:53.595Z,101028.94
2022-09-12T05:04:21.386Z,101030.50
2022-09-12T05:06:48.143Z,101026.38
2022-09-12T05:09:15.813Z,101028.66
2022-09-12T05:14:32.987Z,101026.81
2022-09-12T05:17:01.518Z,101026.94
2022-09-12T05:19:31.629Z,101026.97
2022-09-12T05:21:59.981Z,101030.94
2022-09-12T05:24:26.873Z,101029.66
2022-09-12T05:26:53.911Z,101030.78
2022-09-12T05:29:20.624Z,101028.94
2022-09-12T05:31:50.126Z,101019.97
2022-09-12T05:34:16.851Z,101024.50
2022-09-12T05:36:43.523Z,101025.06
2022-09-12T05:39:10.475Z,101015.78
2022-09-12T05:41:37.250Z,101020.00
2022-09-12T05:44:11.061Z,101021.22
2022-09-12T05:46:43.081Z,101018.72
2022-09-12T05:49:13.460Z,101012.53
2022-09-12T05:51:45.644Z,101017.72
2022-09-12T05:54:18.061Z,101009.41
2022-09-12T05:56:45.812Z,101011.69
2022-09-12T05:59:19.338Z,101014.19
2022-09-12T06:01:47.366Z,101019.53
2022-09-12T06:04:14.601Z,101011.19
2022-09-12T06:06:48.879Z,101015.34
2022-09-12T06:09:17.847Z,101027.78
2022-09-12T06:11:47.221Z,101013.38
2022-09-12T06:14:19.456Z,101019.59
2022-09-12T06:16:47.411Z,101018.22
2022-09-12T06:19:22.351Z,101021.88
2022-09-12T06:21:50.074Z,101029.78
2022-09-12T06:24:19.068Z,101028.00
2022-09-12T06:26:52.714Z,101033.00
2022-09-12T06:29:20.555Z,101022.81
2022-09-12T06:31:47.354Z,101036.34
2022-09-12T06:34:16.445Z,101038.06
2022-09-12T06:36:51.643Z,101036.34
2022-09-12T06:39:22.652Z,101025.97
2022-09-12T06:41:52.319Z,101025.69
2022-09-12T06:44:22.772Z,101025.13
2022-09-12T06:46:50.233Z,101015.94
2022-09-12T06:49:17.748Z,101024.59
2022-09-12T06:51:44.891Z,101028.22
2022-09-12T06:54:17.214Z,101024.13
2022-09-12T06:56:44.736Z,101025.94
2022-09-12T06:59:11.355Z,101030.63
2022-09-12T07:01:40.125Z,101023.97
2022-09-12T07:04:07.321Z,101037.72
2022-09-12T07:06:42.043Z,101041.50
2022-09-12T07:09:17.955Z,101038.91
2022-09-12T07:11:46.690Z,101042.44
2022-09-12T07:14:15.380Z,101036.38
2022-09-12T07:16:42.961Z,101040.41
2022-09-12T07:19:10.893Z,101035.00
2022-09-12T07:21:40.313Z,101033.75
2022-09-12T07:24:10.700Z,101034.56
2022-09-12T07:26:40.643Z,101029.09
2022-09-12T07:29:35.371Z,101017.53
2022-09-12T07:32:01.649Z,101020.88
2022-09-12T07:34:28.308Z,101025.09
2022-09-12T07:36:54.974Z,101013.09
2022-09-12T07:39:21.664Z,101016.88
2022-09-12T07:41:48.332Z,101020.63
2022-09-12T07:44:14.979Z,101020.88
2022-09-12T07:46:41.676Z,101022.13
2022-09-12T07:49:08.680Z,101017.72
2022-09-12T07:51:38.443Z,101022.13
2022-09-12T07:54:10.200Z,101019.38
2022-09-12T07:56:39.126Z,101012.66
2022-09-12T07:59:07.127Z,101016.22
2022-09-12T08:01:34.148Z,101020.00
2022-09-12T08:04:01.586Z,101023.84
2022-09-12T08:06:32.121Z,101019.19
2022-09-12T08:09:00.042Z,101027.78
2022-09-12T08:11:29.863Z,101024.34
2022-09-12T08:13:58.235Z,101033.91
2022-09-12T08:16:31.002Z,101032.44
2022-09-12T08:19:01.190Z,101036.91
2022-09-12T08:21:32.103Z,101033.47
2022-09-12T08:24:07.248Z,101035.91
2022-09-12T08:26:36.614Z,101038.13
2022-09-12T08:29:04.193Z,101032.72
2022-09-12T08:31:36.444Z,101033.13
2022-09-12T08:34:06.472Z,101037.91
2022-09-12T08:36:35.209Z,101036.81
2022-09-12T08:39:07.124Z,101029.69
2022-09-12T08:41:46.990Z,101034.72
2022-09-12T08:44:56.410Z,101028.81
2022-09-12T08:47:38.094Z,101025.81
2022-09-12T08:50:12.704Z,101031.91
2022-09-12T08:52:58.500Z,101026.88
2022-09-12T08:55:45.952Z,101020.84
2022-09-12T08:58:20.299Z,101032.72
2022-09-12T09:01:42.672Z,101019.22
2022-09-12T09:04:53.842Z,101025.97
2022-09-12T09:07:58.504Z,101017.19
2022-09-12T09:11:04.744Z,101016.81
2022-09-12T09:14:42.013Z,101023.75
2022-09-12T09:17:25.333Z,101012.84
2022-09-12T09:20:38.625Z,101017.25
2022-09-12T09:23:35.568Z,101016.00
2022-09-12T09:26:14.850Z,101018.47
2022-09-12T09:29:05.852Z,101019.09
2022-09-12T09:31:39.733Z,101011.44
2022-09-12T09:34:19.564Z,101010.28
2022-09-12T09:36:55.802Z,101009.72
2022-09-12T09:40:18.061Z,101003.75
2022-09-12T09:43:27.355Z,100996.97
2022-09-12T09:45:54.189Z,100996.03
2022-09-12T09:48:34.987Z,100997.69
2022-09-12T09:51:08.002Z,100994.94
2022-09-12T09:53:46.228Z,100998.19
2022-09-12T09:56:42.434Z,100999.75
2022-09-12T09:59:31.807Z,100989.09
2022-09-12T10:02:24.007Z,100988.25
2022-09-12T10:04:59.173Z,100986.28
2022-09-12T10:07:27.531Z,100999.25
2022-09-12T10:10:18.738Z,100998.88
2022-09-12T10:12:46.119Z,100988.34
2022-09-12T10:15:23.250Z,100991.78
2022-09-12T10:17:51.105Z,100991.28
2022-09-12T10:20:45.828Z,100994.38
2022-09-12T10:23:40.241Z,100989.38
2022-09-12T10:26:15.104Z,100986.75
2022-09-12T10:28:51.764Z,100985.13
2022-09-12T10:31:31.584Z,100984.16
2022-09-12T10:34:00.847Z,100986.75
2022-09-12T10:36:40.434Z,100986.59
2022-09-12T10:39:18.689Z,100988.28
2022-09-12T10:41:46.905Z,100986.44
2022-09-12T10:44:27.243Z,100984.50
2022-09-12T10:46:55.859Z,100982.38
2022-09-12T10:49:31.128Z,100982.88
2022-09-12T10:52:25.019Z,100982.41
2022-09-12T10:54:52.962Z,100977.22
2022-09-12T10:57:42.889Z,100980.66
2022-09-12T11:00:18.132Z,100971.56
2022-09-12T11:03:22.587Z,100976.69
2022-09-12T11:06:01.749Z,100967.31
2022-09-12T11:09:02.198Z,100972.78
2022-09-12T11:12:25.215Z,100963.00
2022-09-12T11:15:17.662Z,100969.44
2022-09-12T11:18:33.067Z,100960.78
2022-09-12T11:21:48.239Z,100958.19
2022-09-12T11:24:38.292Z,100961.69
2022-09-12T11:27:56.856Z,100966.72
2022-09-12T11:30:23.535Z,100952.16
2022-09-12T11:33:05.882Z,100961.41
2022-09-12T11:35:47.821Z,100950.63
2022-09-12T11:38:55.114Z,100955.84
2022-09-12T11:41:39.704Z,100938.66
2022-09-12T11:44:26.236Z,100943.78
2022-09-12T11:46:52.996Z,100940.88
2022-09-12T11:49:40.473Z,100938.19
2022-09-12T11:52:22.956Z,100945.84
2022-09-12T11:55:18.454Z,100946.84
2022-09-12T11:57:55.777Z,100940.06
2022-09-12T12:00:39.520Z,100936.94
2022-09-12T12:03:28.771Z,100930.34
2022-09-12T12:06:19.233Z,100931.09
2022-09-12T12:08:50.592Z,100922.75
2022-09-12T12:11:38.480Z,100914.81
2022-09-12T12:14:30.842Z,100917.47
2022-09-12T12:16:58.219Z,100914.19
2022-09-12T12:19:36.105Z,100912.88
2022-09-12T12:22:25.397Z,100908.50
2022-09-12T12:25:29.636Z,100908.25
2022-09-12T12:28:05.413Z,100908.63
2022-09-12T12:30:33.363Z,100907.69
2022-09-12T12:33:26.899Z,100907.59
2022-09-12T12:36:29.741Z,100910.31
2022-09-12T12:38:56.522Z,100898.22
2022-09-12T12:41:45.096Z,100902.22
2022-09-12T12:44:47.257Z,100904.41
2022-09-12T12:47:29.037Z,100902.78
2022-09-12T12:50:10.144Z,100886.56
2022-09-12T12:53:01.483Z,100892.22
2022-09-12T12:55:48.844Z,100879.81
2022-09-12T12:58:40.620Z,100885.88
2022-09-12T13:01:22.864Z,100892.97
2022-09-12T13:04:17.484Z,100881.72
2022-09-12T13:06:57.020Z,100870.41
2022-09-12T13:09:52.898Z,100871.81
2022-09-12T13:12:36.315Z,100870.16
2022-09-12T13:15:36.169Z,100868.88
2022-09-12T13:18:12.129Z,100868.03
2022-09-12T13:21:14.947Z,100864.88
2022-09-12T13:23:42.288Z,100858.97
2022-09-12T13:26:23.584Z,100859.84
2022-09-12T13:28:51.543Z,100850.72
2022-09-12T13:31:30.660Z,100854.28
2022-09-12T13:34:05.946Z,100838.16
2022-09-12T13:37:04.862Z,100833.84
2022-09-12T13:40:13.146Z,100835.00
2022-09-12T13:42:48.436Z,100828.22
2022-09-12T13:45:26.862Z,100829.97
2022-09-12T13:48:02.938Z,100822.56
2022-09-12T13:50:41.507Z,100822.16
2022-09-12T13:53:18.158Z,100821.44
2022-09-12T13:55:58.273Z,100818.03
2022-09-12T13:58:37.159Z,100814.72
2022-09-12T14:01:16.070Z,100814.34
2022-09-12T14:04:13.012Z,100814.72
2022-09-12T14:06:51.283Z,100807.94
2022-09-12T14:09:32.097Z,100804.31
2022-09-12T14:11:59.478Z,100800.22
2022-09-12T14:14:42.163Z,100786.44
2022-09-12T14:17:36.244Z,100791.41
2022-09-12T14:20:14.299Z,100792.47
2022-09-12T14:22:41.868Z,100797.25
2022-09-12T14:25:19.538Z,100789.56
2022-09-12T14:27:55.718Z,100791.59
2022-09-12T14:30:33.982Z,100788.06
2022-09-12T14:33:12.624Z,100787.38
2022-09-12T14:35:51.784Z,100777.81
2022-09-12T14:38:45.919Z,100793.16
2022-09-12T14:41:26.030Z,100781.31
2022-09-12T14:44:01.152Z,100786.13
2022-09-12T14:46:41.308Z,100787.22
2022-09-12T14:49:42.532Z,100775.72
2022-09-12T14:52:34.905Z,100778.75
2022-09-12T14:55:29.608Z,100774.59
2022-09-12T14:58:18.459Z,100775.94
2022-09-12T15:01:06.525Z,100769.22
2022-09-12T15:03:44.934Z,100761.22
2022-09-12T15:06:39.503Z,100760.00
2022-09-12T15:09:13.402Z,100760.44
2022-09-12T15:11:40.246Z,100754.81
2022-09-12T15:14:17.037Z,100752.91
2022-09-12T15:16:43.681Z,100749.09
2022-09-12T15:19:10.530Z,100752.22
2022-09-12T15:21:37.849Z,100748.03
2022-09-12T15:24:04.885Z,100743.69
2022-09-12T15:26:31.675Z,100740.03
2022-09-12T15:28:58.429Z,100738.88
2022-09-12T15:31:32.195Z,100736.16
2022-09-12T15:34:01.698Z,100736.28
2022-09-12T15:36:29.004Z,100732.59
2022-09-12T15:38:57.120Z,100722.72
2022-09-12T15:41:38.438Z,100723.19
2022-09-12T15:44:10.872Z,100727.84
2022-09-12T15:46:37.884Z,100717.59
2022-09-12T15:49:04.896Z,100710.50
2022-09-12T15:51:31.740Z,100711.63
2022-09-12T15:53:59.146Z,100715.25
2022-09-12T15:56:26.033Z,100701.84
2022-09-12T15:58:59.104Z,100703.00
2022-09-12T16:01:31.847Z,100699.28
2022-09-12T16:03:58.749Z,100697.25
2022-09-12T16:06:25.419Z,100696.66
2022-09-12T16:08:52.259Z,100696.63
2022-09-12T16:11:25.841Z,100697.94
2022-09-12T16:13:55.251Z,100696.06
2022-09-12T16:16:22.011Z,100686.19
2022-09-12T16:18:48.820Z,100685.56
2022-09-12T16:21:16.071Z,100678.84
2022-09-12T16:23:48.024Z,100666.63
2022-09-12T16:26:16.001Z,100664.34
2022-09-12T16:28:42.995Z,100669.63
2022-09-12T16:31:14.294Z,100668.34
2022-09-12T16:33:43.990Z,100658.06
2022-09-12T16:36:15.491Z,100660.56
2022-09-12T16:38:52.853Z,100656.34
2022-09-12T16:41:27.355Z,100653.00
2022-09-12T16:43:54.958Z,100643.50
2022-09-12T16:46:30.549Z,100643.94
2022-09-12T16:48:59.408Z,100637.00
2022-09-12T16:51:32.218Z,100635.28
2022-09-12T16:54:01.824Z,100636.53
2022-09-12T16:56:28.819Z,100635.47
2022-09-12T16:58:56.188Z,100640.09
2022-09-12T17:01:26.313Z,100646.59
2022-09-12T17:03:58.869Z,100635.84
2022-09-12T17:06:27.360Z,100641.94
2022-09-12T17:09:03.887Z,100629.59
2022-09-12T17:11:38.238Z,100632.75
2022-09-12T17:14:08.708Z,100628.31
2022-09-12T17:16:42.569Z,100621.16
2022-09-12T17:19:29.893Z,100622.78
2022-09-12T17:21:58.441Z,100622.09
2022-09-12T17:24:28.487Z,100624.00
2022-09-12T17:26:57.011Z,100620.63
2022-09-12T17:29:23.792Z,100620.22
2022-09-12T17:31:50.412Z,100609.69
2022-09-12T17:34:17.950Z,100615.13
2022-09-12T17:36:48.301Z,100609.25
2022-09-12T17:39:16.020Z,100606.91
2022-09-12T17:41:43.781Z,100601.25
2022-09-12T17:44:15.258Z,100595.16
2022-09-12T17:46:43.643Z,100585.91
2022-09-12T17:49:26.320Z,100585.25
2022-09-12T17:59:00.245Z,100578.53
2022-09-12T18:01:47.558Z,100574.06
2022-09-12T18:04:15.696Z,100576.16
2022-09-12T18:06:47.986Z,100576.13
2022-09-12T18:09:25.394Z,100573.81
2022-09-12T18:11:53.613Z,100574.44
2022-09-12T18:14:21.247Z,100573.22
2022-09-12T18:16:49.423Z,100569.47
2022-09-12T18:19:17.935Z,100563.38
2022-09-12T18:21:48.654Z,100572.63
2022-09-12T18:24:16.353Z,100559.19
2022-09-12T18:26:45.671Z,100552.69
2022-09-12T18:29:16.847Z,100555.19
2022-09-12T18:31:46.632Z,100547.63
2022-09-12T18:34:14.105Z,100544.22
2022-09-12T18:36:49.790Z,100543.97
2022-09-12T18:39:24.103Z,100535.75
2022-09-12T18:41:54.027Z,100531.25
2022-09-12T18:44:20.703Z,100527.63
2022-09-12T18:46:47.298Z,100535.75
2022-09-12T18:49:14.176Z,100531.69
2022-09-12T18:51:41.797Z,100524.06
2022-09-12T18:54:14.421Z,100519.22
2022-09-12T18:56:43.873Z,100516.44
2022-09-12T18:59:14.124Z,100513.53
2022-09-12T19:01:42.372Z,100511.00
2022-09-12T19:04:11.381Z,100507.84
2022-09-12T19:06:43.613Z,100515.78
2022-09-12T19:09:13.905Z,100510.75
2022-09-12T19:11:50.767Z,100504.00
2022-09-12T19:14:24.885Z,100498.19
2022-09-12T19:16:52.977Z,100497.78
2022-09-12T19:19:21.328Z,100495.28
2022-09-12T19:21:48.489Z,100491.31
2022-09-12T19:24:16.580Z,100498.72
2022-09-12T19:26:46.721Z,100485.31
2022-09-12T19:29:16.467Z,100488.50
2022-09-12T19:31:45.485Z,100484.34
2022-09-12T19:34:13.600Z,100473.84
2022-09-12T19:36:46.703Z,100474.94
2022-09-12T19:39:19.761Z,100470.84
2022-09-12T19:41:47.038Z,100471.06
2022-09-12T19:44:14.700Z,100463.56
2022-09-12T19:46:42.260Z,100471.97
2022-09-12T19:49:12.743Z,100470.34
2022-09-12T19:51:39.701Z,100465.28
2022-09-12T19:54:07.732Z,100456.09
2022-09-12T19:56:34.816Z,100457.13
2022-09-12T19:59:01.492Z,100457.94
2022-09-12T20:01:28.983Z,100454.81
2022-09-12T20:04:00.840Z,100453.56
2022-09-12T20:06:27.857Z,100448.53
2022-09-12T20:08:55.714Z,100451.03
2022-09-12T20:11:25.588Z,100441.59
2022-09-12T20:13:53.358Z,100437.00
2022-09-12T20:16:29.208Z,100434.69
2022-09-12T20:19:02.421Z,100431.75
2022-09-12T20:21:32.933Z,100425.47
2022-09-12T20:24:16.003Z,100425.03
2022-09-12T20:26:43.470Z,100412.84
2022-09-12T20:29:11.977Z,100409.91
2022-09-12T20:31:42.208Z,100408.00
2022-09-12T20:34:16.702Z,100407.81
2022-09-12T20:36:43.726Z,100409.28
2022-09-12T20:39:22.627Z,100404.66
2022-09-12T20:41:49.920Z,100401.09
2022-09-12T20:44:20.368Z,100393.53
2022-09-12T20:46:47.305Z,100392.28
2022-09-12T20:49:14.297Z,100388.09
2022-09-12T20:51:41.040Z,100390.16
2022-09-12T20:54:08.016Z,100383.06
2022-09-12T20:56:37.512Z,100383.88
2022-09-12T20:59:06.006Z,100377.34
2022-09-12T21:01:33.145Z,100374.22
2022-09-12T21:04:01.420Z,100365.22
2022-09-12T21:06:28.786Z,100353.25
2022-09-12T21:08:59.816Z,100352.41
2022-09-12T21:11:28.905Z,100343.16
2022-09-12T21:13:56.135Z,100335.19
2022-09-12T21:16:24.240Z,100333.09
2022-09-12T21:18:59.726Z,100326.78
2022-09-12T21:21:27.654Z,100326.16
2022-09-12T21:23:59.908Z,100331.44
2022-09-12T21:26:27.186Z,100327.66
2022-09-12T21:28:53.891Z,100332.28
2022-09-12T21:31:21.040Z,100329.56
2022-09-12T21:33:48.261Z,100318.44
2022-09-12T21:36:17.455Z,100318.84
2022-09-12T21:38:44.383Z,100318.00
2022-09-12T21:41:16.345Z,100313.59
2022-09-12T21:43:44.113Z,100302.28
2022-09-12T21:46:11.519Z,100306.06
2022-09-12T21:48:38.360Z,100294.34
2022-09-12T21:51:05.690Z,100293.91
2022-09-12T21:53:32.548Z,100299.38
2022-09-12T21:56:08.701Z,100292.22
2022-09-12T21:58:37.427Z,100292.22
2022-09-12T22:01:08.451Z,100286.34
2022-09-12T22:03:35.306Z,100282.81
2022-09-12T22:06:06.615Z,100269.78
2022-09-12T22:08:37.292Z,100273.56
2022-09-12T22:11:11.528Z,100273.56
2022-09-12T22:13:43.297Z,100268.13
2022-09-12T22:16:11.061Z,100261.00
2022-09-12T22:18:38.756Z,100259.09
2022-09-12T22:21:14.782Z,100258.66
2022-09-12T22:24:00.839Z,100262.47
2022-09-12T22:26:28.093Z,100248.19
2022-09-12T22:28:56.043Z,100250.50
2022-09-12T22:31:23.542Z,100258.47
2022-09-12T22:33:51.517Z,100250.91
2022-09-12T22:36:18.292Z,100252.81
2022-09-12T22:38:45.423Z,100245.22
2022-09-12T22:41:13.189Z,100241.03
2022-09-12T22:43:40.231Z,100235.59
2022-09-12T22:46:10.322Z,100239.56
2022-09-12T22:48:38.088Z,100233.50
2022-09-12T22:51:06.127Z,100227.84
2022-09-12T22:53:34.512Z,100220.28
2022-09-12T22:56:02.032Z,100215.66
2022-09-12T22:58:28.736Z,100214.84
2022-09-12T23:00:55.475Z,100208.31
2022-09-12T23:03:22.492Z,100213.56
2022-09-12T23:05:49.401Z,100200.56
2022-09-12T23:08:19.254Z,100198.03
2022-09-12T23:10:46.717Z,100189.66
2022-09-12T23:13:13.758Z,100187.56
2022-09-12T23:15:40.638Z,100186.50
2022-09-12T23:18:07.761Z,100177.31
2022-09-12T23:20:34.362Z,100187.56
2022-09-12T23:23:00.943Z,100183.97
2022-09-12T23:25:27.644Z,100179.75
2022-09-12T23:27:54.260Z,100187.91
2022-09-12T23:30:21.667Z,100181.81
2022-09-12T23:32:49.290Z,100174.44
2022-09-12T23:35:19.676Z,100172.13
2022-09-12T23:37:47.699Z,100176.72
2022-09-12T23:40:14.668Z,100177.09
2022-09-12T23:42:41.559Z,100175.19
2022-09-12T23:45:09.988Z,100173.50
2022-09-12T23:47:36.616Z,100163.84
2022-09-12T23:50:04.199Z,100164.50
2022-09-12T23:52:30.852Z,100159.25
2022-09-12T23:54:57.542Z,100167.03
2022-09-12T23:57:24.182Z,100158.25
2022-09-12T23:59:50.957Z,100151.34
